Queen Of Burnaby — VCVV — position and weather

sailwx.info

Track history (hours):
 
Tides and Currents Weather Stations Pressure Air Temp Water Temp Dewpoint Dewpoint Depression Visibility Wind Speed Wind Dir Waves Ship Positions

Queen Of Burnaby

Last reported at 2014-Oct-25 03:23 UTC. Time now 2014-Oct-25 04:18 UTC.
Position N 49°50' W 124°33'.

Length 130 m; draft 4 m.

MMSI: 316001246.

Date/timePositionNaut miles runAvg speedWind from/ knotsBaromVisibWave heightAir tempDewpointWater temp
2014-Oct-25 03:23N 49°50' W 124°33'1214.9
2014-Oct-25 02:33N 49°45' W 124°50'3 3.4
2014-Oct-25 01:33N 49°44' W 124°55'1212.5
2014-Oct-25 00:33N 49°49' W 124°37'3 2.8
2014-Oct-24 23:27N 49°50' W 124°33'1213.6
2014-Oct-24 22:33N 49°46' W 124°51'3 1.4
2014-Oct-24 20:13N 49°44' W 124°55'812.0
2014-Oct-24 19:33N 49°47' W 124°43'8 8.1
2014-Oct-24 18:33N 49°50' W 124°32'1010.4
2014-Oct-24 17:34N 49°47' W 124°47'6 5.9
2014-Oct-24 16:33N 49°44' W 124°55'1312.9
2014-Oct-24 15:33N 49°49' W 124°37'1 1.0
2014-Oct-24 14:33N 49°50' W 124°36'1413.3
2014-Oct-24 13:31N 49°44' W 124°55'0 0.0
2014-Oct-24 11:33N 49°44' W 124°55'0 0.0
2014-Oct-24 10:21N 49°44' W 124°55'0 0.0
2014-Oct-24 09:33N 49°44' W 124°55'0 0.0
2014-Oct-24 07:21N 49°44' W 124°55'0 0.0
2014-Oct-24 06:27N 49°44' W 124°55'0 0.0
2014-Oct-24 05:27N 49°44' W 124°55'6 6.3
2014-Oct-24 04:33N 49°47' W 124°48'10 9.2
2014-Oct-24 03:26N 49°50' W 124°32'1314.5
2014-Oct-24 02:34N 49°46' W 124°51'3 3.2
2014-Oct-24 01:32N 49°45' W 124°55'1212.5
2014-Oct-24 00:33N 49°49' W 124°37'3 3.1
2014-Oct-23 23:28N 49°50' W 124°33'1414.7
2014-Oct-23 22:32N 49°45' W 124°53'2 1.0
2014-Oct-23 20:27N 49°44' W 124°55'13 5.4
2014-Oct-23 18:04N 49°49' W 124°37'713.8
2014-Oct-23 17:33N 49°47' W 124°47'7 2.4
2014-Oct-23 14:32N 49°49' W 124°37'13 2.6
2014-Oct-23 09:29N 49°44' W 124°55'0 0.0
2014-Oct-23 08:29N 49°44' W 124°55'12 2.9
2014-Oct-23 04:25N 49°48' W 124°38'4 4.4
2014-Oct-23 03:28N 49°50' W 124°32'1010.6
2014-Oct-23 02:33N 49°47' W 124°47'6 5.1
2014-Oct-23 01:19N 49°44' W 124°55'0 0.0
2014-Oct-23 00:31N 49°44' W 124°55'0 0.0
2014-Oct-22 23:25N 49°44' W 124°55'0 0.0
2014-Oct-22 22:31N 49°44' W 124°55'0 0.0
2014-Oct-22 21:25N 49°44' W 124°55'0 0.0
2014-Oct-22 20:31N 49°44' W 124°55'10 8.9
2014-Oct-22 19:26N 49°48' W 124°41'6 4.9
2014-Oct-22 18:13N 49°50' W 124°33'914.0
2014-Oct-22 17:33N 49°47' W 124°47'5 4.4
2014-Oct-22 16:22N 49°45' W 124°54'1113.6
2014-Oct-22 15:33N 49°49' W 124°38'2 1.9
2014-Oct-22 14:33N 49°50' W 124°36'14 4.6
2014-Oct-22 11:30N 49°44' W 124°55'0 0.0
2014-Oct-22 10:30N 49°44' W 124°55'0 0.0
2014-Oct-22 08:12N 49°44' W 124°55'0 0.0
2014-Oct-22 07:12N 49°44' W 124°55'0 0.0
2014-Oct-22 06:18N 49°44' W 124°55'0 0.0
2014-Oct-22 05:32N 49°44' W 124°55'1010.3
2014-Oct-22 04:33N 49°44' W 124°40'8 7.1
2014-Oct-22 03:26N 49°50' W 124°33'1314.5
2014-Oct-22 02:33N 49°45' W 124°51'3 2.8
2014-Oct-22 01:31N 49°44' W 124°55'1212.8
2014-Oct-22 00:33N 49°49' W 124°38'3 2.6
2014-Oct-21 23:33N 49°50' W 124°34'1211.9
2014-Oct-21 22:33N 49°45' W 124°51'3 2.7
2014-Oct-21 21:27N 49°44' W 124°55'1112.1
2014-Oct-21 20:33N 49°48' W 124°40'5 5.1
2014-Oct-21 19:33N 49°50' W 124°32'1312.6
2014-Oct-21 18:32N 49°46' W 124°51'1 0.9
2014-Oct-21 17:31N 49°46' W 124°49'1211.2
2014-Oct-21 16:26N 49°50' W 124°32'0 0.0
2014-Oct-21 15:08N 49°50' W 124°32'711.4
2014-Oct-21 14:33N 49°48' W 124°42'10 4.5
2014-Oct-21 12:26N 49°44' W 124°55'0 0.0
2014-Oct-21 09:32N 49°44' W 124°55'0 0.0
2014-Oct-21 07:08N 49°44' W 124°55'0 0.0
2014-Oct-21 06:32N 49°44' W 124°55'0 0.0
2014-Oct-21 05:14N 49°44' W 124°55'5 7.5
2014-Oct-21 04:33N 49°47' W 124°48'11 9.3
2014-Oct-21 03:24N 49°50' W 124°33'1214.4
2014-Oct-21 02:33N 49°46' W 124°50'4 3.4
2014-Oct-21 01:31N 49°44' W 124°55'1212.4
2014-Oct-21 00:33N 49°49' W 124°38'4 3.4
2014-Oct-20 23:26N 49°50' W 124°33'1314.4
2014-Oct-20 22:33N 49°46' W 124°51'3 2.7
2014-Oct-20 21:20N 49°44' W 124°55'0 0.0
2014-Oct-20 20:30N 49°44' W 124°55'8 7.8
2014-Oct-20 19:31N 49°47' W 124°44'9 7.5
2014-Oct-20 18:23N 49°50' W 124°32'1012.4
2014-Oct-20 17:33N 49°47' W 124°47'6 5.2
2014-Oct-20 16:27N 49°44' W 124°55'1212.9
2014-Oct-20 15:33N 49°49' W 124°38'3 2.5
2014-Oct-20 14:33N 49°50' W 124°35'1414.0
2014-Oct-20 13:33N 49°44' W 124°55'0 0.0
2014-Oct-20 07:27N 49°44' W 124°55'0 0.0
2014-Oct-20 05:22N 49°44' W 124°55'6 7.1
2014-Oct-20 04:33N 49°47' W 124°47'10 9.3
2014-Oct-20 03:27N 49°50' W 124°32'1314.3
2014-Oct-20 02:33N 49°46' W 124°51'3 3.2
2014-Oct-20 01:33N 49°44' W 124°55'1212.4
2014-Oct-20 00:33N 49°49' W 124°37'3 3.1
2014-Oct-19 23:29N 49°50' W 124°33'1313.5
2014-Oct-19 22:33N 49°45' W 124°51'3 1.4
2014-Oct-19 20:27N 49°44' W 124°55'10 9.9
2014-Oct-19 19:27N 49°45' W 124°40'7 6.1
2014-Oct-19 18:21N 49°50' W 124°33'1011.7
2014-Oct-19 17:32N 49°45' W 124°46'6 6.0
2014-Oct-19 16:32N 49°44' W 124°55'1111.3
2014-Oct-19 15:33N 49°48' W 124°39'2 2.1
2014-Oct-19 14:32N 49°49' W 124°37'1313.3
2014-Oct-19 13:33N 49°45' W 124°55'0 0.2
2014-Oct-19 12:30N 49°44' W 124°55'0 0.0
2014-Oct-19 11:24N 49°44' W 124°55'0 0.0
2014-Oct-19 09:24N 49°44' W 124°55'0 0.0
2014-Oct-19 08:18N 49°44' W 124°55'0 0.0
2014-Oct-19 07:24N 49°44' W 124°55'0 0.0
2014-Oct-19 06:24N 49°44' W 124°55'0 0.0
2014-Oct-19 05:12N 49°44' W 124°55'5 7.8
2014-Oct-19 04:32N 49°47' W 124°48'1111.3
2014-Oct-19 03:33N 49°50' W 124°32'8 8.4
2014-Oct-19 02:33N 49°47' W 124°44'8 7.6
2014-Oct-19 01:31N 49°44' W 124°55'0 0.0
2014-Oct-19 00:13N 49°44' W 124°55'0 0.0
2014-Oct-18 20:20N 49°44' W 124°55'1210.6
2014-Oct-18 19:12N 49°49' W 124°38'4 4.0
2014-Oct-18 18:16N 49°50' W 124°33'1013.4
2014-Oct-18 17:31N 49°46' W 124°47'6 6.0
2014-Oct-18 16:33N 49°44' W 124°55'1111.4
2014-Oct-18 15:33N 49°48' W 124°39'3 3.1
2014-Oct-18 14:33N 49°50' W 124°35'1414.0
2014-Oct-18 13:33N 49°45' W 124°55'0 0.0
2014-Oct-18 07:13N 49°44' W 124°55'2 1.3
2014-Oct-18 05:33N 49°44' W 124°52'1110.9
2014-Oct-18 04:32N 49°49' W 124°36'2 2.0
2014-Oct-18 03:33N 49°50' W 124°34'1312.1
2014-Oct-18 02:31N 49°45' W 124°52'2 2.0
2014-Oct-18 01:26N 49°43' W 124°49'910.3
2014-Oct-18 00:33N 49°49' W 124°38'4 3.8
2014-Oct-17 23:33N 49°50' W 124°32'1313.0
2014-Oct-17 22:33N 49°45' W 124°51'3 2.9
2014-Oct-17 21:33N 49°44' W 124°55'0 0.0
2014-Oct-17 20:33N 49°44' W 124°55'10 8.7
2014-Oct-17 19:24N 49°48' W 124°41'6 6.3
2014-Oct-17 18:25N 49°50' W 124°32'1011.3
2014-Oct-17 17:33N 49°46' W 124°46'6 6.4
2014-Oct-17 16:33N 49°44' W 124°55'1111.2
2014-Oct-17 15:33N 49°48' W 124°39'3 3.0
2014-Oct-17 14:33N 49°50' W 124°35'1411.2
2014-Oct-17 13:17N 49°44' W 124°55'0 0.0
2014-Oct-17 12:29N 49°44' W 124°55'0 0.0
2014-Oct-17 06:23N 49°44' W 124°55'0 0.0
2014-Oct-17 05:29N 49°44' W 124°55'8 8.7
2014-Oct-17 04:31N 49°48' W 124°43'7 7.5
2014-Oct-17 03:33N 49°50' W 124°33'1514.8
2014-Oct-17 02:32N 49°45' W 124°54'0 0.1
2014-Oct-17 01:33N 49°45' W 124°54'1212.3
2014-Oct-17 00:33N 49°49' W 124°36'1 1.0
2014-Oct-16 23:33N 49°50' W 124°35'1211.4
2014-Oct-16 22:29N 49°45' W 124°53'2 2.1
2014-Oct-16 21:29N 49°44' W 124°55'0 0.0
2014-Oct-16 20:30N 49°44' W 124°55'8 8.4
2014-Oct-16 19:31N 49°48' W 124°44'8 6.6
2014-Oct-16 18:19N 49°50' W 124°32'912.2
2014-Oct-16 17:33N 49°47' W 124°46'7 6.7
2014-Oct-16 16:33N 49°44' W 124°55'1413.9
2014-Oct-16 15:33N 49°49' W 124°35'1 0.6
2014-Oct-16 14:33N 49°50' W 124°35'1413.8
2014-Oct-16 13:33N 49°45' W 124°55'0 0.1
2014-Oct-16 12:17N 49°44' W 124°55'0 0.0
2014-Oct-16 11:29N 49°44' W 124°55'0 0.0
2014-Oct-16 10:17N 49°44' W 124°55'0 0.0
2014-Oct-16 09:11N 49°44' W 124°55'0 0.0
2014-Oct-16 08:23N 49°44' W 124°55'0 0.0
2014-Oct-16 07:23N 49°44' W 124°55'5 1.8
2014-Oct-16 04:31N 49°47' W 124°48'11 7.5
2014-Oct-16 03:06N 49°50' W 124°33'814.5
2014-Oct-16 02:34N 49°47' W 124°44'8 1.2
2014-Oct-15 20:10N 49°44' W 124°55'1212.1
2014-Oct-15 19:11N 49°49' W 124°38'4 4.2
2014-Oct-15 18:13N 49°50' W 124°33'913.5
2014-Oct-15 17:32N 49°47' W 124°46'7 6.7
2014-Oct-15 16:33N 49°44' W 124°55'1211.3
2014-Oct-15 15:31N 49°49' W 124°39'2 1.9
2014-Oct-15 14:30N 49°50' W 124°36'1314.2
2014-Oct-15 13:33N 49°45' W 124°55'0 0.1
2014-Oct-15 10:26N 49°44' W 124°55'0 0.0
2014-Oct-15 09:31N 49°44' W 124°55'0 0.0
2014-Oct-15 08:31N 49°44' W 124°55'0 0.0
2014-Oct-15 07:33N 49°44' W 124°55'0 0.0
2014-Oct-15 06:32N 49°44' W 124°55'0 0.0
2014-Oct-15 05:32N 49°44' W 124°55'6 5.5
2014-Oct-15 04:31N 49°46' W 124°47'  
Track history (hours):
 
Tides and Currents Weather Stations Pressure Air Temp Water Temp Dewpoint Dewpoint Depression Visibility Wind Speed Wind Dir Waves Ship Positions

Queen Of Burnaby

Last reported at 2014-Oct-25 03:23 UTC. Time now 2014-Oct-25 04:18 UTC.
Position N 49°50' W 124°33'.

Length 130 m; draft 4 m.

MMSI: 316001246.

Date/timePositionNaut miles runAvg speedWind from/ knotsBaromVisibWave heightAir tempDewpointWater temp
2014-Oct-25 03:23N 49°50' W 124°33'1214.9
2014-Oct-25 02:33N 49°45' W 124°50'3 3.4
2014-Oct-25 01:33N 49°44' W 124°55'1212.5
2014-Oct-25 00:33N 49°49' W 124°37'3 2.8
2014-Oct-24 23:27N 49°50' W 124°33'1213.6
2014-Oct-24 22:33N 49°46' W 124°51'3 1.4
2014-Oct-24 20:13N 49°44' W 124°55'812.0
2014-Oct-24 19:33N 49°47' W 124°43'8 8.1
2014-Oct-24 18:33N 49°50' W 124°32'1010.4
2014-Oct-24 17:34N 49°47' W 124°47'6 5.9
2014-Oct-24 16:33N 49°44' W 124°55'1312.9
2014-Oct-24 15:33N 49°49' W 124°37'1 1.0
2014-Oct-24 14:33N 49°50' W 124°36'1413.3
2014-Oct-24 13:31N 49°44' W 124°55'0 0.0
2014-Oct-24 11:33N 49°44' W 124°55'0 0.0
2014-Oct-24 10:21N 49°44' W 124°55'0 0.0
2014-Oct-24 09:33N 49°44' W 124°55'0 0.0
2014-Oct-24 07:21N 49°44' W 124°55'0 0.0
2014-Oct-24 06:27N 49°44' W 124°55'0 0.0
2014-Oct-24 05:27N 49°44' W 124°55'6 6.3
2014-Oct-24 04:33N 49°47' W 124°48'10 9.2
2014-Oct-24 03:26N 49°50' W 124°32'1314.5
2014-Oct-24 02:34N 49°46' W 124°51'3 3.2
2014-Oct-24 01:32N 49°45' W 124°55'1212.5
2014-Oct-24 00:33N 49°49' W 124°37'3 3.1
2014-Oct-23 23:28N 49°50' W 124°33'1414.7
2014-Oct-23 22:32N 49°45' W 124°53'2 1.0
2014-Oct-23 20:27N 49°44' W 124°55'13 5.4
2014-Oct-23 18:04N 49°49' W 124°37'713.8
2014-Oct-23 17:33N 49°47' W 124°47'7 2.4
2014-Oct-23 14:32N 49°49' W 124°37'13 2.6
2014-Oct-23 09:29N 49°44' W 124°55'0 0.0
2014-Oct-23 08:29N 49°44' W 124°55'12 2.9
2014-Oct-23 04:25N 49°48' W 124°38'4 4.4
2014-Oct-23 03:28N 49°50' W 124°32'1010.6
2014-Oct-23 02:33N 49°47' W 124°47'6 5.1
2014-Oct-23 01:19N 49°44' W 124°55'0 0.0
2014-Oct-23 00:31N 49°44' W 124°55'0 0.0
2014-Oct-22 23:25N 49°44' W 124°55'0 0.0
2014-Oct-22 22:31N 49°44' W 124°55'0 0.0
2014-Oct-22 21:25N 49°44' W 124°55'0 0.0
2014-Oct-22 20:31N 49°44' W 124°55'10 8.9
2014-Oct-22 19:26N 49°48' W 124°41'6 4.9
2014-Oct-22 18:13N 49°50' W 124°33'914.0
2014-Oct-22 17:33N 49°47' W 124°47'5 4.4
2014-Oct-22 16:22N 49°45' W 124°54'1113.6
2014-Oct-22 15:33N 49°49' W 124°38'2 1.9
2014-Oct-22 14:33N 49°50' W 124°36'14 4.6
2014-Oct-22 11:30N 49°44' W 124°55'0 0.0
2014-Oct-22 10:30N 49°44' W 124°55'0 0.0
2014-Oct-22 08:12N 49°44' W 124°55'0 0.0
2014-Oct-22 07:12N 49°44' W 124°55'0 0.0
2014-Oct-22 06:18N 49°44' W 124°55'0 0.0
2014-Oct-22 05:32N 49°44' W 124°55'1010.3
2014-Oct-22 04:33N 49°44' W 124°40'8 7.1
2014-Oct-22 03:26N 49°50' W 124°33'1314.5
2014-Oct-22 02:33N 49°45' W 124°51'3 2.8
2014-Oct-22 01:31N 49°44' W 124°55'1212.8
2014-Oct-22 00:33N 49°49' W 124°38'3 2.6
2014-Oct-21 23:33N 49°50' W 124°34'1211.9
2014-Oct-21 22:33N 49°45' W 124°51'3 2.7
2014-Oct-21 21:27N 49°44' W 124°55'1112.1
2014-Oct-21 20:33N 49°48' W 124°40'5 5.1
2014-Oct-21 19:33N 49°50' W 124°32'1312.6
2014-Oct-21 18:32N 49°46' W 124°51'1 0.9
2014-Oct-21 17:31N 49°46' W 124°49'1211.2
2014-Oct-21 16:26N 49°50' W 124°32'0 0.0
2014-Oct-21 15:08N 49°50' W 124°32'711.4
2014-Oct-21 14:33N 49°48' W 124°42'10 4.5
2014-Oct-21 12:26N 49°44' W 124°55'0 0.0
2014-Oct-21 09:32N 49°44' W 124°55'0 0.0
2014-Oct-21 07:08N 49°44' W 124°55'0 0.0
2014-Oct-21 06:32N 49°44' W 124°55'0 0.0
2014-Oct-21 05:14N 49°44' W 124°55'5 7.5
2014-Oct-21 04:33N 49°47' W 124°48'11 9.3
2014-Oct-21 03:24N 49°50' W 124°33'1214.4
2014-Oct-21 02:33N 49°46' W 124°50'4 3.4
2014-Oct-21 01:31N 49°44' W 124°55'1212.4
2014-Oct-21 00:33N 49°49' W 124°38'4 3.4
2014-Oct-20 23:26N 49°50' W 124°33'1314.4
2014-Oct-20 22:33N 49°46' W 124°51'3 2.7
2014-Oct-20 21:20N 49°44' W 124°55'0 0.0
2014-Oct-20 20:30N 49°44' W 124°55'8 7.8
2014-Oct-20 19:31N 49°47' W 124°44'9 7.5
2014-Oct-20 18:23N 49°50' W 124°32'1012.4
2014-Oct-20 17:33N 49°47' W 124°47'6 5.2
2014-Oct-20 16:27N 49°44' W 124°55'1212.9
2014-Oct-20 15:33N 49°49' W 124°38'3 2.5
2014-Oct-20 14:33N 49°50' W 124°35'1414.0
2014-Oct-20 13:33N 49°44' W 124°55'0 0.0
2014-Oct-20 07:27N 49°44' W 124°55'0 0.0
2014-Oct-20 05:22N 49°44' W 124°55'6 7.1
2014-Oct-20 04:33N 49°47' W 124°47'10 9.3
2014-Oct-20 03:27N 49°50' W 124°32'1314.3
2014-Oct-20 02:33N 49°46' W 124°51'3 3.2
2014-Oct-20 01:33N 49°44' W 124°55'1212.4
2014-Oct-20 00:33N 49°49' W 124°37'3 3.1
2014-Oct-19 23:29N 49°50' W 124°33'1313.5
2014-Oct-19 22:33N 49°45' W 124°51'3 1.4
2014-Oct-19 20:27N 49°44' W 124°55'10 9.9
2014-Oct-19 19:27N 49°45' W 124°40'7 6.1
2014-Oct-19 18:21N 49°50' W 124°33'1011.7
2014-Oct-19 17:32N 49°45' W 124°46'6 6.0
2014-Oct-19 16:32N 49°44' W 124°55'1111.3
2014-Oct-19 15:33N 49°48' W 124°39'2 2.1
2014-Oct-19 14:32N 49°49' W 124°37'1313.3
2014-Oct-19 13:33N 49°45' W 124°55'0 0.2
2014-Oct-19 12:30N 49°44' W 124°55'0 0.0
2014-Oct-19 11:24N 49°44' W 124°55'0 0.0
2014-Oct-19 09:24N 49°44' W 124°55'0 0.0
2014-Oct-19 08:18N 49°44' W 124°55'0 0.0
2014-Oct-19 07:24N 49°44' W 124°55'0 0.0
2014-Oct-19 06:24N 49°44' W 124°55'0 0.0
2014-Oct-19 05:12N 49°44' W 124°55'5 7.8
2014-Oct-19 04:32N 49°47' W 124°48'1111.3
2014-Oct-19 03:33N 49°50' W 124°32'8 8.4
2014-Oct-19 02:33N 49°47' W 124°44'8 7.6
2014-Oct-19 01:31N 49°44' W 124°55'0 0.0
2014-Oct-19 00:13N 49°44' W 124°55'0 0.0
2014-Oct-18 20:20N 49°44' W 124°55'1210.6
2014-Oct-18 19:12N 49°49' W 124°38'4 4.0
2014-Oct-18 18:16N 49°50' W 124°33'1013.4
2014-Oct-18 17:31N 49°46' W 124°47'6 6.0
2014-Oct-18 16:33N 49°44' W 124°55'1111.4
2014-Oct-18 15:33N 49°48' W 124°39'3 3.1
2014-Oct-18 14:33N 49°50' W 124°35'1414.0
2014-Oct-18 13:33N 49°45' W 124°55'0 0.0
2014-Oct-18 07:13N 49°44' W 124°55'2 1.3
2014-Oct-18 05:33N 49°44' W 124°52'1110.9
2014-Oct-18 04:32N 49°49' W 124°36'2 2.0
2014-Oct-18 03:33N 49°50' W 124°34'1312.1
2014-Oct-18 02:31N 49°45' W 124°52'2 2.0
2014-Oct-18 01:26N 49°43' W 124°49'910.3
2014-Oct-18 00:33N 49°49' W 124°38'4 3.8
2014-Oct-17 23:33N 49°50' W 124°32'1313.0
2014-Oct-17 22:33N 49°45' W 124°51'3 2.9
2014-Oct-17 21:33N 49°44' W 124°55'0 0.0
2014-Oct-17 20:33N 49°44' W 124°55'10 8.7
2014-Oct-17 19:24N 49°48' W 124°41'6 6.3
2014-Oct-17 18:25N 49°50' W 124°32'1011.3
2014-Oct-17 17:33N 49°46' W 124°46'6 6.4
2014-Oct-17 16:33N 49°44' W 124°55'1111.2
2014-Oct-17 15:33N 49°48' W 124°39'3 3.0
2014-Oct-17 14:33N 49°50' W 124°35'1411.2
2014-Oct-17 13:17N 49°44' W 124°55'0 0.0
2014-Oct-17 12:29N 49°44' W 124°55'0 0.0
2014-Oct-17 06:23N 49°44' W 124°55'0 0.0
2014-Oct-17 05:29N 49°44' W 124°55'8 8.7
2014-Oct-17 04:31N 49°48' W 124°43'7 7.5
2014-Oct-17 03:33N 49°50' W 124°33'1514.8
2014-Oct-17 02:32N 49°45' W 124°54'0 0.1
2014-Oct-17 01:33N 49°45' W 124°54'1212.3
2014-Oct-17 00:33N 49°49' W 124°36'1 1.0
2014-Oct-16 23:33N 49°50' W 124°35'1211.4
2014-Oct-16 22:29N 49°45' W 124°53'2 2.1
2014-Oct-16 21:29N 49°44' W 124°55'0 0.0
2014-Oct-16 20:30N 49°44' W 124°55'8 8.4
2014-Oct-16 19:31N 49°48' W 124°44'8 6.6
2014-Oct-16 18:19N 49°50' W 124°32'912.2
2014-Oct-16 17:33N 49°47' W 124°46'7 6.7
2014-Oct-16 16:33N 49°44' W 124°55'1413.9
2014-Oct-16 15:33N 49°49' W 124°35'1 0.6
2014-Oct-16 14:33N 49°50' W 124°35'1413.8
2014-Oct-16 13:33N 49°45' W 124°55'0 0.1
2014-Oct-16 12:17N 49°44' W 124°55'0 0.0
2014-Oct-16 11:29N 49°44' W 124°55'0 0.0
2014-Oct-16 10:17N 49°44' W 124°55'0 0.0
2014-Oct-16 09:11N 49°44' W 124°55'0 0.0
2014-Oct-16 08:23N 49°44' W 124°55'0 0.0
2014-Oct-16 07:23N 49°44' W 124°55'5 1.8
2014-Oct-16 04:31N 49°47' W 124°48'11 7.5
2014-Oct-16 03:06N 49°50' W 124°33'814.5
2014-Oct-16 02:34N 49°47' W 124°44'8 1.2
2014-Oct-15 20:10N 49°44' W 124°55'1212.1
2014-Oct-15 19:11N 49°49' W 124°38'4 4.2
2014-Oct-15 18:13N 49°50' W 124°33'913.5
2014-Oct-15 17:32N 49°47' W 124°46'7 6.7
2014-Oct-15 16:33N 49°44' W 124°55'1211.3
2014-Oct-15 15:31N 49°49' W 124°39'2 1.9
2014-Oct-15 14:30N 49°50' W 124°36'1314.2
2014-Oct-15 13:33N 49°45' W 124°55'0 0.1
2014-Oct-15 10:26N 49°44' W 124°55'0 0.0
2014-Oct-15 09:31N 49°44' W 124°55'0 0.0
2014-Oct-15 08:31N 49°44' W 124°55'0 0.0
2014-Oct-15 07:33N 49°44' W 124°55'0 0.0
2014-Oct-15 06:32N 49°44' W 124°55'0 0.0
2014-Oct-15 05:32N 49°44' W 124°55'6 5.5
2014-Oct-15 04:31N 49°46' W 124°47'  

Dump ship's entire track history